Time;durP1;ratioP1;P1;durP2;ratioP2;P2;SDS_P1;SDS_P2;PMS_P1;PMS_P2;Temp;Humidity;BMP_temperature;BMP_pressure;BME280_temperature;BME280_humidity;BME280_pressure;Samples;Min_cycle;Max_cycle;Signal;HPM_P1;HPM_P2
2023/09/26 00:01:36;;;;;;;8.85;6.20;;;;;;;21.32;51.41;93992.31;5774971;24;20210;-92
2023/09/26 00:04:07;;;;;;;9.65;6.35;;;;;;;21.33;51.31;93999.28;5799406;24;20034;-91
2023/09/26 00:06:38;;;;;;;9.93;6.28;;;;;;;21.34;51.33;93989.03;5763920;24;20023;-92
2023/09/26 00:09:14;;;;;;;9.32;6.75;;;;;;;21.31;51.44;93982.56;5794614;24;20034;-92
2023/09/26 00:11:42;;;;;;;8.07;6.18;;;;;;;21.31;51.59;93990.81;5790398;24;20022;-92
2023/09/26 00:14:18;;;;;;;10.50;6.15;;;;;;;21.30;51.27;93985.81;5761024;24;20023;-91
2023/09/26 00:16:59;;;;;;;6.82;5.53;;;;;;;21.31;51.53;93990.81;5906882;24;20032;-91
2023/09/26 00:19:33;;;;;;;8.95;6.13;;;;;;;21.30;51.35;93972.06;5895641;24;20022;-93
2023/09/26 00:22:10;;;;;;;7.60;5.70;;;;;;;21.30;51.11;93985.81;5871390;24;20097;-92
2023/09/26 00:24:36;;;;;;;10.68;6.75;;;;;;;21.30;51.45;93985.81;5968960;24;20036;-91
2023/09/26 00:27:10;;;;;;;9.93;6.07;;;;;;;21.34;51.38;93981.53;5974491;23;20112;-91
2023/09/26 00:29:38;;;;;;;8.32;6.15;;;;;;;21.31;51.27;93977.06;5954989;24;20023;-92
2023/09/26 00:32:06;;;;;;;7.38;5.90;;;;;;;21.31;51.42;93981.81;5975089;23;20472;-92
2023/09/26 00:34:32;;;;;;;7.85;5.95;;;;;;;21.29;51.60;93971.31;5953126;24;20032;-92
2023/09/26 00:37:06;;;;;;;7.63;5.90;;;;;;;21.28;51.27;93969.09;5999049;23;20023;-91
2023/09/26 00:39:41;;;;;;;8.40;5.80;;;;;;;21.27;51.67;93973.09;6013041;23;20026;-91
2023/09/26 00:42:08;;;;;;;8.70;6.22;;;;;;;21.28;51.30;93967.09;5953683;24;20119;-91
2023/09/26 00:44:36;;;;;;;8.13;6.10;;;;;;;21.26;51.50;93972.34;5938722;24;20080;-92
2023/09/26 00:47:05;;;;;;;8.10;5.70;;;;;;;21.27;51.37;93981.34;5910926;24;20021;-92
2023/09/26 00:49:36;;;;;;;9.02;6.22;;;;;;;21.26;51.52;93977.13;5946876;23;20062;-91
2023/09/26 00:52:03;;;;;;;8.07;5.63;;;;;;;21.27;51.38;93971.09;6009941;23;20357;-91
2023/09/26 00:54:31;;;;;;;6.45;5.70;;;;;;;;;;5993761;23;20460;-92
2023/09/26 00:56:59;;;;;;;7.88;5.82;;;;;;;21.24;51.27;93969.38;5948915;24;20017;-91
2023/09/26 00:59:39;;;;;;;7.85;5.70;;;;;;;21.23;51.30;93967.88;5891400;24;20020;-91
2023/09/26 01:02:08;;;;;;;9.65;6.57;;;;;;;21.22;51.29;93960.91;5921179;24;20096;-91
2023/09/26 01:04:35;;;;;;;8.23;5.63;;;;;;;21.29;51.46;93965.09;5954998;24;20449;-92
2023/09/26 01:07:14;;;;;;;7.35;5.32;;;;;;;21.25;51.26;93961.88;5944503;24;20043;-93
2023/09/26 01:09:39;;;;;;;8.10;5.47;;;;;;;21.24;51.21;93957.63;5897371;24;20025;-91
2023/09/26 01:12:08;;;;;;;9.45;6.47;;;;;;;21.23;51.59;93961.63;5901331;24;20036;-92
2023/09/26 01:14:35;;;;;;;7.53;5.60;;;;;;;21.23;51.47;93956.13;5931950;24;20018;-91
2023/09/26 01:17:01;;;;;;;7.57;5.78;;;;;;;21.24;51.30;93960.38;5930809;24;20424;-91
2023/09/26 01:19:33;;;;;;;6.57;4.85;;;;;;;21.23;51.73;93967.88;5918727;24;20093;-92
2023/09/26 01:21:59;;;;;;;7.32;5.40;;;;;;;21.22;51.58;93960.91;5935625;24;20024;-91
2023/09/26 01:24:27;;;;;;;6.38;5.45;;;;;;;21.26;51.22;93957.88;5933611;24;20020;-92
2023/09/26 01:26:55;;;;;;;7.88;5.63;;;;;;;21.22;51.61;93946.44;5911630;24;20020;-91
2023/09/26 01:29:25;;;;;;;6.78;5.07;;;;;;;21.21;51.45;93953.94;5867102;24;20029;-92
2023/09/26 01:31:51;;;;;;;9.73;5.85;;;;;;;21.24;51.31;93941.88;5905974;24;20463;-91
2023/09/26 01:34:20;;;;;;;8.98;5.72;;;;;;;21.24;51.45;93966.63;5920218;24;20458;-93
2023/09/26 01:36:54;;;;;;;7.72;5.10;;;;;;;21.26;51.31;93955.84;5877238;24;20021;-92
2023/09/26 01:39:34;;;;;;;7.63;5.40;;;;;;;21.24;51.22;93954.88;5934724;24;20067;-91
2023/09/26 01:42:06;;;;;;;6.38;4.88;;;;;;;21.24;51.32;93952.88;5855031;24;20033;-91
2023/09/26 01:44:35;;;;;;;10.52;6.25;;;;;;;21.23;51.34;93953.41;5831047;24;20025;-92
2023/09/26 01:47:07;;;;;;;7.37;5.70;;;;;;;21.22;51.39;93949.19;5878922;24;20106;-92
2023/09/26 01:49:33;;;;;;;7.68;5.53;;;;;;;21.22;51.52;93955.41;5858398;24;20025;-92
2023/09/26 01:52:00;;;;;;;7.68;5.43;;;;;;;21.19;51.27;93951.66;5847336;24;20033;-91
2023/09/26 01:54:28;;;;;;;8.00;5.28;;;;;;;21.20;51.39;93952.44;5863112;24;20104;-91
2023/09/26 01:57:06;;;;;;;6.72;5.28;;;;;;;21.17;51.57;93954.19;5911048;24;20029;-91
2023/09/26 01:59:34;;;;;;;7.43;5.22;;;;;;;21.22;51.39;93951.94;5932456;24;20073;-92
2023/09/26 02:02:07;;;;;;;7.40;5.20;;;;;;;21.22;51.38;93951.94;5932588;24;20025;-92
2023/09/26 02:04:32;;;;;;;7.78;5.22;;;;;;;21.20;51.26;93946.94;5918416;24;20021;-92
2023/09/26 02:07:04;;;;;;;6.32;5.07;;;;;;;21.18;51.22;93947.44;5859428;24;20056;-91
2023/09/26 02:09:40;;;;;;;7.20;4.82;;;;;;;21.18;51.49;93949.44;5842856;24;20026;-91
2023/09/26 02:12:10;;;;;;;7.15;5.03;;;;;;;21.21;51.32;93948.44;5815595;24;20047;-91
2023/09/26 02:14:40;;;;;;;5.83;5.07;;;;;;;21.22;51.45;93941.66;5810552;24;20023;-92
2023/09/26 02:17:11;;;;;;;6.78;5.03;;;;;;;21.20;51.29;93946.94;5848148;24;20026;-91
2023/09/26 02:19:39;;;;;;;6.57;4.80;;;;;;;21.21;51.21;93951.19;5848477;24;20027;-91
2023/09/26 02:22:14;;;;;;;6.95;5.13;;;;;;;21.19;51.36;93948.91;5814412;24;20041;-92
2023/09/26 02:24:41;;;;;;;6.30;4.53;;;;;;;21.19;51.34;93956.44;5824352;24;20030;-92
2023/09/26 02:27:11;;;;;;;6.30;5.32;;;;;;;21.19;51.13;93946.16;5825113;24;20049;-91
2023/09/26 02:32:05;;;;;;;7.30;5.15;;;;;;;21.17;51.41;93948.69;5754571;23;8880370;-92
2023/09/26 02:34:31;;;;;;;7.07;4.85;;;;;;;21.20;51.20;93950.44;6096655;23;20022;-92
2023/09/26 02:36:57;;;;;;;7.15;5.40;;;;;;;21.18;51.36;93955.69;6079867;23;20026;-91
2023/09/26 02:39:37;;;;;;;6.30;4.82;;;;;;;21.16;51.35;93944.44;6059619;23;21915;-90
2023/09/26 02:42:06;;;;;;;5.45;4.30;;;;;;;21.18;51.46;93957.69;6076009;23;20454;-90
2023/09/26 02:44:34;;;;;;;5.45;4.28;;;;;;;21.18;51.49;93947.44;6091659;23;20029;-90
2023/09/26 02:47:00;;;;;;;6.53;4.57;;;;;;;21.22;51.32;93952.66;6080156;23;20026;-91
2023/09/26 02:49:26;;;;;;;6.18;4.82;;;;;;;21.24;51.14;93960.38;6079972;23;20123;-91
2023/09/26 02:51:52;;;;;;;5.88;4.40;;;;;;;21.21;51.22;93953.94;6060020;23;20027;-91
2023/09/26 02:54:19;;;;;;;7.18;5.10;;;;;;;21.18;51.21;93952.19;6070647;23;20026;-91
2023/09/26 02:56:53;;;;;;;5.80;4.60;;;;;;;21.18;51.23;93952.94;6011609;23;20105;-92
2023/09/26 02:59:19;;;;;;;6.75;4.78;;;;;;;21.23;51.11;93945.88;5950580;23;20042;-90
2023/09/26 03:01:48;;;;;;;5.38;4.57;;;;;;;21.19;51.18;93943.44;6036640;23;20019;-90
2023/09/26 03:04:20;;;;;;;7.85;4.93;;;;;;;21.17;51.27;93943.19;6033937;23;20442;-91
2023/09/26 03:06:47;;;;;;;6.00;4.55;;;;;;;21.19;51.14;93946.16;5991124;23;20043;-91
2023/09/26 03:09:26;;;;;;;5.40;4.32;;;;;;;21.20;51.30;93946.94;5974115;23;20020;-90
2023/09/26 03:11:53;;;;;;;6.25;4.75;;;;;;;21.18;51.14;93947.44;5989235;23;20027;-92
2023/09/26 03:14:29;;;;;;;6.28;4.85;;;;;;;21.21;51.08;93934.69;5987731;23;20020;-92
2023/09/26 03:17:07;;;;;;;5.40;4.13;;;;;;;21.21;51.28;93937.44;5980716;23;20019;-91
2023/09/26 03:19:34;;;;;;;6.15;4.70;;;;;;;21.19;51.35;93940.69;5945991;23;20385;-90
2023/09/26 03:22:10;;;;;;;5.22;4.63;;;;;;;21.17;51.24;93932.19;5960911;23;20019;-90
2023/09/26 03:24:36;;;;;;;5.70;4.32;;;;;;;21.18;51.46;93928.19;5977073;23;20027;-91
2023/09/26 03:27:03;;;;;;;5.40;4.20;;;;;;;21.28;51.24;93938.84;5961803;23;20024;-93
2023/09/26 03:29:29;;;;;;;6.85;4.82;;;;;;;21.21;51.21;93929.19;5976955;23;20023;-91
2023/09/26 03:31:55;;;;;;;8.98;4.72;;;;;;;21.25;51.20;93928.88;5963885;23;20372;-90
2023/09/26 03:34:21;;;;;;;6.03;4.80;;;;;;;21.24;51.11;93935.63;5960900;23;20028;-92
2023/09/26 03:36:46;;;;;;;6.95;4.80;;;;;;;21.24;51.49;93932.88;6015550;23;20034;-90
2023/09/26 03:39:12;;;;;;;16.67;7.80;;;;;;;21.34;51.37;93926.53;6021269;23;20015;-92
2023/09/26 03:41:37;;;;;;;177.27;145.23;;;;;;;21.34;51.27;93918.28;6046540;23;20018;-92
2023/09/26 03:44:22;;;;;;;9.07;5.10;;;;;;;21.37;51.12;93935.75;6020348;23;20030;-93
2023/09/26 03:46:50;;;;;;;6.13;5.18;;;;;;;21.42;50.95;93926.69;6004849;23;20034;-92
2023/09/26 03:49:16;;;;;;;5.97;4.47;;;;;;;21.44;50.56;93935.16;6042524;23;20102;-90
2023/09/26 03:51:42;;;;;;;9.32;6.35;;;;;;;21.34;51.13;93934.78;6046242;23;20022;-92
2023/09/26 03:54:07;;;;;;;8.75;6.25;;;;;;;21.32;51.03;93937.31;6042583;23;20026;-92
2023/09/26 03:56:33;;;;;;;13.52;7.97;;;;;;;21.35;50.60;93927.28;6043429;23;20077;-92
2023/09/26 03:58:58;;;;;;;32.88;9.38;;;;;;;21.32;50.26;93931.81;6031722;23;20083;-91
2023/09/26 04:01:24;;;;;;;38.03;10.55;;;;;;;21.22;50.06;93936.16;6007179;23;20019;-92
2023/09/26 04:03:49;;;;;;;30.48;10.15;;;;;;;21.15;50.23;93926.47;6007648;23;20046;-92
2023/09/26 04:06:15;;;;;;;48.20;12.70;;;;;;;21.07;50.17;93930.28;6004962;23;20058;-92
2023/09/26 04:08:41;;;;;;;46.65;12.20;;;;;;;21.01;50.04;93930.34;6007518;23;20023;-91
2023/09/26 04:11:14;;;;;;;48.42;14.50;;;;;;;21.01;50.05;93935.09;6006081;23;20019;-91
2023/09/26 04:13:39;;;;;;;60.88;15.85;;;;;;;20.99;49.93;93934.91;6007204;23;20068;-92
2023/09/26 04:16:06;;;;;;;71.97;19.73;;;;;;;21.00;49.99;93941.88;6007085;23;20023;-93
2023/09/26 04:18:32;;;;;;;61.50;17.15;;;;;;;20.96;50.11;93939.41;5995890;23;20047;-91
2023/09/26 04:21:01;;;;;;;74.07;17.08;;;;;;;20.91;50.49;93942.94;6006705;23;20087;-93
2023/09/26 04:23:27;;;;;;;114.22;35.65;;;;;;;20.91;50.47;93944.97;6006926;23;20082;-93
2023/09/26 04:25:53;;;;;;;100.28;27.45;;;;;;;20.84;50.62;93941.50;6009169;23;20023;-93
2023/09/26 04:28:19;;;;;;;85.30;28.13;;;;;;;20.81;50.70;93936.28;6007418;23;20023;-93
2023/09/26 04:30:45;;;;;;;78.63;24.35;;;;;;;20.73;50.56;93935.38;6035970;23;20053;-93
2023/09/26 04:33:11;;;;;;;146.98;33.95;;;;;;;20.67;51.02;93927.19;6041845;23;20023;-93
2023/09/26 04:35:36;;;;;;;129.55;33.70;;;;;;;20.66;51.02;93930.44;6034484;23;20022;-91
2023/09/26 04:38:03;;;;;;;109.28;32.72;;;;;;;20.70;50.86;93934.41;6018832;23;20030;-92
2023/09/26 04:40:30;;;;;;;98.30;24.60;;;;;;;20.66;51.25;93935.94;6016786;23;20029;-91
2023/09/26 04:42:59;;;;;;;108.82;30.23;;;;;;;20.73;51.76;93932.63;5984314;23;20090;-90
2023/09/26 04:45:25;;;;;;;70.47;25.42;;;;;;;20.68;50.81;93936.91;5980393;23;20087;-92
2023/09/26 04:47:54;;;;;;;90.82;25.27;;;;;;;20.62;50.92;93925.22;5937219;23;20286;-92
2023/09/26 04:50:21;;;;;;;66.03;21.88;;;;;;;20.55;51.05;93923.06;5956768;23;20023;-91
2023/09/26 04:52:46;;;;;;;69.90;27.10;;;;;;;20.58;50.96;93924.75;5956807;23;20034;-90
2023/09/26 04:55:12;;;;;;;73.30;32.45;;;;;;;20.58;51.17;93921.25;5953586;23;20338;-91
2023/09/26 04:57:37;;;;;;;89.28;34.28;;;;;;;20.60;51.03;93924.25;5955079;23;20011;-90
2023/09/26 05:00:05;;;;;;;96.15;37.30;;;;;;;20.65;50.96;93928.94;5952270;23;20766;-91
2023/09/26 05:02:31;;;;;;;80.32;34.95;;;;;;;20.67;50.89;93918.94;5955542;23;20019;-92
2023/09/26 05:04:57;;;;;;;84.55;40.58;;;;;;;20.76;50.77;93915.88;5956407;23;20072;-92
2023/09/26 05:07:23;;;;;;;111.75;52.72;;;;;;;20.75;50.85;93930.13;5931114;23;20027;-93
2023/09/26 05:09:48;;;;;;;113.03;53.15;;;;;;;20.77;50.63;93928.34;5956564;23;20027;-92
2023/09/26 05:12:14;;;;;;;142.32;63.20;;;;;;;20.80;51.02;93932.06;5953008;23;20067;-92
2023/09/26 05:14:39;;;;;;;149.45;62.80;;;;;;;20.84;50.33;93924.28;5974943;23;20427;-91
2023/09/26 05:17:05;;;;;;;163.55;71.82;;;;;;;20.83;50.93;93928.28;6000080;23;20053;-90
2023/09/26 05:19:30;;;;;;;209.05;96.10;;;;;;;20.85;50.57;93929.25;6017661;23;20018;-91
2023/09/26 05:21:56;;;;;;;139.13;65.75;;;;;;;20.85;50.53;93929.25;6066777;23;20093;-91
2023/09/26 05:24:22;;;;;;;84.45;34.95;;;;;;;20.88;50.54;93930.25;6004806;23;20026;-92
2023/09/26 05:26:49;;;;;;;49.45;24.52;;;;;;;20.83;50.57;93931.03;6021475;23;20046;-92
2023/09/26 05:29:14;;;;;;;55.65;21.35;;;;;;;20.81;50.79;93923.28;6042324;23;20439;-93
2023/09/26 05:31:40;;;;;;;49.35;21.83;;;;;;;20.75;50.97;93914.38;6015986;23;20018;-92
2023/09/26 05:34:07;;;;;;;55.50;22.98;;;;;;;20.79;50.92;93919.56;6015584;23;20018;-91
2023/09/26 05:36:33;;;;;;;65.85;26.50;;;;;;;20.85;50.75;93921.00;6014257;23;20025;-91
2023/09/26 05:38:58;;;;;;;114.38;34.03;;;;;;;20.85;50.66;93928.50;6014612;23;20019;-91
2023/09/26 05:41:25;;;;;;;107.47;35.45;;;;;;;20.85;50.66;93923.00;6013780;23;20023;-92
2023/09/26 05:43:50;;;;;;;104.97;33.83;;;;;;;20.90;50.71;93919.47;6014093;23;20027;-91
2023/09/26 05:46:16;;;;;;;90.72;36.78;;;;;;;20.93;50.61;93923.19;6010258;23;20023;-91
2023/09/26 05:48:41;;;;;;;108.97;42.58;;;;;;;20.96;50.61;93909.19;6013217;23;20019;-90
2023/09/26 05:51:07;;;;;;;92.15;40.90;;;;;;;20.97;50.48;93916.16;6012011;23;20026;-91
2023/09/26 05:53:32;;;;;;;111.50;46.78;;;;;;;21.01;50.69;93916.59;6014938;23;20030;-92
2023/09/26 05:55:58;;;;;;;116.75;51.78;;;;;;;21.03;50.56;93916.09;6019474;23;20019;-93
2023/09/26 05:58:24;;;;;;;146.38;62.28;;;;;;;21.10;50.71;93918.28;6014897;23;20023;-92
2023/09/26 06:00:49;;;;;;;156.15;75.97;;;;;;;21.11;50.51;93915.00;6015534;23;20022;-91
2023/09/26 06:03:15;;;;;;;140.38;67.80;;;;;;;21.23;50.39;93914.91;6017575;23;20018;-92
2023/09/26 06:05:42;;;;;;;160.90;73.68;;;;;;;21.20;50.24;93916.69;5992450;23;20011;-92
2023/09/26 06:08:10;;;;;;;170.00;70.57;;;;;;;21.22;50.53;93914.16;6004510;23;20015;-92
2023/09/26 06:10:35;;;;;;;144.93;70.32;;;;;;;21.27;50.37;93913.34;6018506;23;20022;-92
2023/09/26 06:13:01;;;;;;;142.10;68.35;;;;;;;21.27;50.33;93912.59;6019229;23;20390;-93
2023/09/26 06:15:28;;;;;;;142.55;71.18;;;;;;;21.31;50.15;93911.06;5993497;23;20022;-91
2023/09/26 06:17:57;;;;;;;133.68;71.53;;;;;;;21.30;50.37;93919.81;6003801;23;20443;-93
2023/09/26 06:20:23;;;;;;;173.80;73.03;;;;;;;21.31;50.12;93921.31;6012675;23;20480;-93
2023/09/26 06:22:49;;;;;;;158.32;71.32;;;;;;;21.38;50.14;93921.50;5993747;23;20451;-92
2023/09/26 06:25:14;;;;;;;148.57;73.00;;;;;;;21.31;50.14;93921.31;6014776;23;20034;-94
2023/09/26 06:27:40;;;;;;;144.85;71.22;;;;;;;21.31;50.25;93926.81;5992102;23;20019;-94
2023/09/26 06:30:06;;;;;;;133.90;64.80;;;;;;;21.35;50.19;93922.53;6013626;23;20029;-92
2023/09/26 06:32:33;;;;;;;134.90;64.47;;;;;;;21.34;50.30;93923.03;6014933;23;20073;-90
2023/09/26 06:34:59;;;;;;;137.73;65.38;;;;;;;21.37;50.04;93914.50;6012048;23;20026;-90
2023/09/26 06:37:25;;;;;;;150.15;68.75;;;;;;;21.37;50.18;93922.75;6039493;23;20521;-92
2023/09/26 06:39:58;;;;;;;161.20;74.90;;;;;;;21.34;50.24;93926.53;6041661;23;20026;-93
2023/09/26 06:43:03;;;;;;;153.90;74.18;;;;;;;21.41;50.19;93925.22;6042141;23;20021;-94
2023/09/26 06:45:31;;;;;;;187.95;81.43;;;;;;;21.42;49.99;93921.19;6072085;23;20383;-93
2023/09/26 06:47:57;;;;;;;176.35;83.22;;;;;;;21.43;50.13;93925.44;6005331;23;20110;-93
2023/09/26 06:50:26;;;;;;;195.43;83.72;;;;;;;21.43;50.07;93928.94;5998184;23;20022;-90
2023/09/26 06:52:52;;;;;;;164.73;83.68;;;;;;;21.44;50.19;93919.41;5986726;23;20024;-94
2023/09/26 06:56:02;;;;;;;176.07;88.00;;;;;;;21.46;50.04;93916.13;5979855;23;20032;-94
2023/09/26 06:58:45;;;;;;;397.63;138.57;;;;;;;21.44;50.24;93927.66;5944743;24;20066;-95
2023/09/26 07:01:14;;;;;;;142.15;58.92;;;;;;;21.43;50.11;93925.44;5930272;24;20252;-93
2023/09/26 07:03:41;;;;;;;79.97;34.10;;;;;;;21.41;50.24;93930.72;5950712;24;20095;-92
2023/09/26 07:06:11;;;;;;;134.77;49.83;;;;;;;21.35;50.42;93924.53;5921883;24;20016;-93
2023/09/26 07:08:39;;;;;;;166.48;57.65;;;;;;;21.34;50.51;93929.28;5910121;24;20044;-93
2023/09/26 07:11:05;;;;;;;245.95;74.40;;;;;;;21.35;50.43;93922.53;5930243;24;20028;-90
2023/09/26 07:13:31;;;;;;;151.65;62.83;;;;;;;21.30;50.62;93928.81;5952266;24;20027;-91
2023/09/26 07:16:04;;;;;;;215.55;99.88;;;;;;;21.28;50.63;93928.59;5921996;24;20028;-92
2023/09/26 07:18:33;;;;;;;146.70;64.57;;;;;;;21.31;50.56;93932.31;5926891;24;20570;-91
2023/09/26 07:21:05;;;;;;;139.63;61.08;;;;;;;21.35;50.54;93924.53;5926935;24;20017;-92
2023/09/26 07:23:32;;;;;;;136.35;52.60;;;;;;;21.29;50.91;93923.84;5946680;23;20023;-94
2023/09/26 07:26:12;;;;;;;118.85;44.35;;;;;;;;;;5981369;23;20492;-93
2023/09/26 07:28:41;;;;;;;104.73;36.83;;;;;;;21.20;51.16;93922.94;6005903;23;20047;-92
2023/09/26 07:31:09;;;;;;;92.95;31.52;;;;;;;21.27;51.37;93929.09;5970416;23;20130;-93
2023/09/26 07:33:34;;;;;;;83.38;30.92;;;;;;;21.29;51.25;93926.59;5963401;23;20801;-92
2023/09/26 07:36:00;;;;;;;104.90;36.55;;;;;;;21.27;51.25;93926.34;6041610;23;20101;-94
2023/09/26 07:38:26;;;;;;;106.20;40.70;;;;;;;21.31;51.24;93935.06;6046030;23;20026;-92
2023/09/26 07:40:51;;;;;;;67.10;24.80;;;;;;;21.26;51.61;93930.38;6017748;23;20022;-91
2023/09/26 07:43:18;;;;;;;87.03;37.63;;;;;;;21.29;51.33;93929.34;6020666;23;20023;-92
2023/09/26 07:45:43;;;;;;;97.20;35.58;;;;;;;21.26;51.50;93931.13;6017995;23;20027;-92
2023/09/26 07:48:13;;;;;;;94.53;35.35;;;;;;;21.28;51.64;93930.59;6039295;23;20078;-92
2023/09/26 07:50:44;;;;;;;60.33;24.35;;;;;;;21.30;51.43;93930.81;6021247;23;20034;-92
2023/09/26 07:53:15;;;;;;;65.50;25.23;;;;;;;21.35;51.24;93925.28;6024588;23;20026;-93
2023/09/26 07:55:41;;;;;;;;;;;;;;;21.30;51.55;93928.81;6018753;23;20019;-92
2023/09/26 07:58:08;;;;;;;66.10;22.88;;;;;;;21.35;51.55;93927.28;6019383;23;20466;-93
2023/09/26 08:00:34;;;;;;;176.82;47.35;;;;;;;21.35;51.69;93927.28;6021957;23;20093;-92
2023/09/26 08:03:03;;;;;;;98.32;29.58;;;;;;;21.31;51.73;93924.81;6019533;23;20023;-94
2023/09/26 08:05:34;;;;;;;50.72;20.38;;;;;;;21.36;51.82;93917.75;6024084;23;20023;-92
2023/09/26 08:08:04;;;;;;;60.13;22.30;;;;;;;21.36;51.60;93932.25;6022411;23;20018;-94
2023/09/26 08:10:31;;;;;;;80.38;23.42;;;;;;;21.38;51.64;93923.50;6015707;23;20058;-91
2023/09/26 08:12:57;;;;;;;63.75;22.92;;;;;;;21.37;51.86;93930.25;6049655;23;20023;-94
2023/09/26 08:15:31;;;;;;;57.28;20.10;;;;;;;21.39;52.03;93924.97;6045476;23;20023;-94
2023/09/26 08:17:58;;;;;;;65.38;22.60;;;;;;;21.39;52.06;93927.72;6033388;23;20025;-92
2023/09/26 08:20:25;;;;;;;50.53;21.83;;;;;;;21.41;52.05;93917.72;6011117;23;20467;-93
2023/09/26 08:22:50;;;;;;;59.58;26.00;;;;;;;21.39;51.96;93919.47;6028593;23;20030;-91
2023/09/26 08:25:20;;;;;;;51.58;26.63;;;;;;;21.44;51.98;93919.41;6067528;23;20021;-90
2023/09/26 08:27:45;;;;;;;54.97;29.05;;;;;;;21.42;52.06;93918.44;6100590;23;20108;-90
2023/09/26 08:30:14;;;;;;;69.10;30.65;;;;;;;21.40;52.17;93912.72;6058886;23;20037;-91
2023/09/26 08:32:42;;;;;;;82.85;42.88;;;;;;;21.43;52.22;93922.69;6080615;23;20014;-91
2023/09/26 08:35:10;;;;;;;86.82;43.63;;;;;;;21.44;52.14;93926.91;6097415;23;20049;-92
2023/09/26 08:37:42;;;;;;;98.25;41.83;;;;;;;21.44;52.38;93913.91;6080378;23;20017;-94
2023/09/26 08:40:21;;;;;;;91.72;44.65;;;;;;;21.45;51.99;93926.38;6109070;23;20032;-92
2023/09/26 08:42:58;;;;;;;118.35;57.00;;;;;;;21.47;52.18;93917.63;6080064;23;20139;-95
2023/09/26 08:45:32;;;;;;;125.07;51.15;;;;;;;21.47;51.79;93929.38;6069808;23;20054;-93
2023/09/26 08:48:11;;;;;;;105.05;45.92;;;;;;;21.44;51.78;93916.66;6019450;23;20024;-91
2023/09/26 08:50:49;;;;;;;71.90;37.00;;;;;;;21.48;51.57;93919.84;5998262;23;20050;-94
2023/09/26 08:53:15;;;;;;;79.18;38.65;;;;;;;21.49;51.06;93920.59;6037663;23;20038;-92
2023/09/26 08:55:45;;;;;;;63.47;35.60;;;;;;;21.47;51.05;93915.59;5985866;23;20016;-90
2023/09/26 08:58:11;;;;;;;77.90;34.08;;;;;;;21.46;51.07;93905.13;5997192;23;20016;-92
2023/09/26 09:00:36;;;;;;;74.50;33.05;;;;;;;21.49;51.09;93915.09;5955604;23;20023;-91
2023/09/26 09:03:04;;;;;;;68.10;33.22;;;;;;;21.47;50.92;93915.59;6011658;23;20016;-93
2023/09/26 09:05:34;;;;;;;62.08;30.02;;;;;;;21.47;50.98;93907.34;6075985;23;20053;-92
2023/09/26 09:08:00;;;;;;;58.40;26.65;;;;;;;21.51;50.96;93907.81;6052628;23;20541;-93
2023/09/26 09:10:26;;;;;;;53.08;24.90;;;;;;;21.49;50.57;93915.84;6052199;23;20076;-92
2023/09/26 09:13:01;;;;;;;52.90;25.45;;;;;;;21.50;50.71;93903.56;6051827;23;20026;-93
2023/09/26 09:15:28;;;;;;;67.85;29.95;;;;;;;21.50;50.67;93905.56;6038260;23;20569;-90
2023/09/26 09:17:53;;;;;;;59.20;28.20;;;;;;;21.54;50.37;93906.03;6034444;23;20545;-92
2023/09/26 09:20:33;;;;;;;100.70;42.42;;;;;;;21.52;50.35;93905.81;6051976;23;20014;-94
2023/09/26 09:23:07;;;;;;;167.07;90.10;;;;;;;21.53;50.38;93908.03;6065981;23;20017;-91
2023/09/26 09:25:37;;;;;;;158.98;70.43;;;;;;;21.56;50.49;93911.75;6056584;23;20077;-92
2023/09/26 09:28:04;;;;;;;156.35;73.00;;;;;;;21.55;50.30;93897.25;6053292;23;20014;-91
2023/09/26 09:30:37;;;;;;;265.58;86.93;;;;;;;21.57;50.55;93896.75;6041264;23;20018;-92
2023/09/26 09:33:03;;;;;;;188.93;53.03;;;;;;;21.57;50.44;93885.00;6049835;23;20014;-93
2023/09/26 09:35:30;;;;;;;176.43;55.17;;;;;;;21.55;50.48;93891.00;6056566;23;20061;-92
2023/09/26 09:37:56;;;;;;;137.18;50.47;;;;;;;21.57;50.47;93891.25;6071362;23;20045;-92
2023/09/26 09:40:23;;;;;;;137.43;47.65;;;;;;;21.60;50.28;93884.72;6064027;23;20024;-92
2023/09/26 09:42:50;;;;;;;118.72;49.95;;;;;;;21.59;50.67;93890.72;6056305;23;20018;-92
2023/09/26 09:45:20;;;;;;;116.70;46.03;;;;;;;21.62;50.13;93884.94;6054107;23;20105;-93
2023/09/26 09:47:47;;;;;;;115.47;48.10;;;;;;;21.63;50.29;93885.69;6054835;23;20446;-93
2023/09/26 09:50:22;;;;;;;124.30;48.08;;;;;;;21.62;50.58;93884.19;6052528;23;20014;-92
2023/09/26 09:52:49;;;;;;;108.50;52.75;;;;;;;21.64;50.25;93884.41;6052716;23;20033;-93
2023/09/26 09:55:23;;;;;;;117.05;53.33;;;;;;;21.66;50.37;93881.84;6052984;23;20017;-93
2023/09/26 09:57:52;;;;;;;88.93;41.28;;;;;;;21.64;50.34;93878.91;6049526;23;20022;-90
2023/09/26 10:00:19;;;;;;;94.38;39.33;;;;;;;21.73;50.21;93882.00;6002916;23;20017;-92
2023/09/26 10:02:54;;;;;;;87.03;36.72;;;;;;;21.68;50.37;93880.06;6031386;23;20045;-92
2023/09/26 10:05:20;;;;;;;81.93;37.58;;;;;;;21.68;50.42;93877.31;6044873;23;20053;-93
2023/09/26 10:07:49;;;;;;;69.82;33.38;;;;;;;21.68;50.28;93871.81;6039905;23;20045;-92
2023/09/26 10:10:17;;;;;;;68.43;33.28;;;;;;;21.66;50.09;93868.84;6049233;23;20024;-91
2023/09/26 10:13:34;;;;;;;66.35;31.35;;;;;;;21.71;50.23;93879.03;6076589;23;20528;-94
2023/09/26 10:16:07;;;;;;;60.10;30.00;;;;;;;21.68;50.03;93874.56;5984525;23;20071;-91
2023/09/26 10:18:37;;;;;;;49.97;27.40;;;;;;;21.67;49.88;93877.84;5956482;23;20031;-91
2023/09/26 10:21:03;;;;;;;49.08;23.00;;;;;;;21.69;50.08;93887.06;5955233;23;20456;-91
2023/09/26 10:23:31;;;;;;;46.50;23.48;;;;;;;21.65;49.89;93881.13;5953185;23;20032;-89
2023/09/26 10:25:56;;;;;;;44.67;23.05;;;;;;;21.69;49.96;93876.06;5955555;23;20016;-90
2023/09/26 10:28:22;;;;;;;39.58;20.05;;;;;;;21.67;49.85;93881.34;5955498;23;20282;-92
2023/09/26 10:30:54;;;;;;;103.93;74.30;;;;;;;21.68;49.67;93880.06;5955365;23;20016;-91
2023/09/26 10:33:19;;;;;;;37.17;21.38;;;;;;;21.68;49.93;93887.59;5954201;23;20024;-90
2023/09/26 10:35:45;;;;;;;35.28;21.13;;;;;;;21.67;49.73;93878.59;5955452;23;20804;-89
2023/09/26 10:38:19;;;;;;;36.30;19.75;;;;;;;21.68;50.04;93884.84;5955371;23;20024;-90
2023/09/26 10:40:48;;;;;;;31.85;17.65;;;;;;;21.69;49.66;93884.31;5958703;23;20031;-92
2023/09/26 10:43:14;;;;;;;32.58;16.65;;;;;;;21.70;49.70;93874.06;5954992;23;20032;-90
2023/09/26 10:45:44;;;;;;;25.95;16.40;;;;;;;21.70;49.72;93869.28;5981338;23;20022;-90
2023/09/26 10:48:11;;;;;;;34.40;18.85;;;;;;;21.73;49.69;93873.00;6047125;23;20714;-92
2023/09/26 10:50:36;;;;;;;43.20;22.70;;;;;;;21.71;49.91;93878.28;6049181;23;20018;-89
2023/09/26 10:53:02;;;;;;;40.78;25.42;;;;;;;21.70;49.87;93874.78;6072949;23;20029;-89
2023/09/26 10:55:27;;;;;;;42.20;23.50;;;;;;;21.72;49.72;93871.53;6072339;23;20021;-90
2023/09/26 10:57:53;;;;;;;34.50;21.65;;;;;;;21.72;49.84;93871.53;6073192;23;20022;-89
2023/09/26 11:00:19;;;;;;;38.92;23.05;;;;;;;21.72;50.07;93869.53;6048802;23;20022;-90
2023/09/26 11:02:47;;;;;;;48.08;26.20;;;;;;;21.75;49.95;93862.22;6045730;23;20014;-90
2023/09/26 11:05:13;;;;;;;49.55;28.25;;;;;;;21.72;50.18;93864.00;6069956;23;20022;-90
2023/09/26 11:07:40;;;;;;;46.25;29.00;;;;;;;21.73;50.01;93875.78;6052896;23;20092;-91
2023/09/26 11:10:14;;;;;;;49.28;30.92;;;;;;;21.73;50.01;93873.75;6076795;23;20462;-93
2023/09/26 11:12:39;;;;;;;46.90;26.02;;;;;;;21.77;49.71;93870.72;6049492;23;20029;-91
2023/09/26 11:15:05;;;;;;;55.25;27.48;;;;;;;21.74;49.64;93867.00;6071307;23;20022;-92
2023/09/26 11:17:38;;;;;;;44.00;24.50;;;;;;;21.73;49.64;93871.00;6050962;23;20038;-92
2023/09/26 11:20:11;;;;;;;50.55;23.90;;;;;;;21.74;49.66;93878.00;6047181;23;20033;-93
2023/09/26 11:22:58;;;;;;;56.13;31.55;;;;;;;21.75;49.64;93871.22;6054440;23;20018;-95
2023/09/26 11:25:26;;;;;;;72.65;36.85;;;;;;;21.76;49.54;93864.47;6078704;23;20022;-93
2023/09/26 11:31:30;;;;;;;;;;;;;;;;;;;;;
2023/09/26 11:40:42;;;;;;;82.07;41.20;;;;;;;21.81;49.98;93851.91;6129367;23;20017;-93
2023/09/26 11:46:12;;;;;;;119.13;46.65;;;;;;;21.82;49.97;93856.13;6125100;23;20009;-93